sensor_id;sensor_type;location;lat;lon;timestamp;temperature;humidity
9768;DHT22;4923;52.520;13.494;2022-08-02T00:02:14;17.60;99.90
9768;DHT22;4923;52.520;13.494;2022-08-02T00:05:01;17.70;99.90
9768;DHT22;4923;52.520;13.494;2022-08-02T00:07:48;17.80;99.90
9768;DHT22;4923;52.520;13.494;2022-08-02T00:10:35;17.80;99.90
9768;DHT22;4923;52.520;13.494;2022-08-02T00:13:22;17.80;99.90
9768;DHT22;4923;52.520;13.494;2022-08-02T00:16:10;17.70;99.90
9768;DHT22;4923;52.520;13.494;2022-08-02T00:18:57;17.70;99.90
9768;DHT22;4923;52.520;13.494;2022-08-02T00:21:44;17.70;99.90
9768;DHT22;4923;52.520;13.494;2022-08-02T00:24:31;17.70;99.90
9768;DHT22;4923;52.520;13.494;2022-08-02T00:27:18;17.70;99.90
9768;DHT22;4923;52.520;13.494;2022-08-02T00:30:06;17.80;99.90
9768;DHT22;4923;52.520;13.494;2022-08-02T00:32:54;17.80;99.90
9768;DHT22;4923;52.520;13.494;2022-08-02T00:35:41;17.90;99.90
9768;DHT22;4923;52.520;13.494;2022-08-02T00:38:28;18.00;99.90
9768;DHT22;4923;52.520;13.494;2022-08-02T00:41:17;18.00;99.90
9768;DHT22;4923;52.520;13.494;2022-08-02T00:44:04;18.00;99.90
9768;DHT22;4923;52.520;13.494;2022-08-02T00:46:51;18.00;99.90
9768;DHT22;4923;52.520;13.494;2022-08-02T00:49:39;18.00;99.90
9768;DHT22;4923;52.520;13.494;2022-08-02T00:52:26;18.00;99.90
9768;DHT22;4923;52.520;13.494;2022-08-02T00:55:13;17.90;99.90
9768;DHT22;4923;52.520;13.494;2022-08-02T00:58:00;18.00;99.90
9768;DHT22;4923;52.520;13.494;2022-08-02T01:00:47;18.00;99.90
9768;DHT22;4923;52.520;13.494;2022-08-02T01:03:34;17.90;99.90
9768;DHT22;4923;52.520;13.494;2022-08-02T01:06:22;18.00;99.90
9768;DHT22;4923;52.520;13.494;2022-08-02T01:09:09;18.00;99.90
9768;DHT22;4923;52.520;13.494;2022-08-02T01:11:56;18.00;99.90
9768;DHT22;4923;52.520;13.494;2022-08-02T01:14:47;18.00;99.90
9768;DHT22;4923;52.520;13.494;2022-08-02T01:17:43;18.00;99.90
9768;DHT22;4923;52.520;13.494;2022-08-02T01:20:48;18.10;99.90
9768;DHT22;4923;52.520;13.494;2022-08-02T01:24:03;18.10;99.90
9768;DHT22;4923;52.520;13.494;2022-08-02T01:26:59;18.10;99.90
9768;DHT22;4923;52.520;13.494;2022-08-02T01:29:55;18.10;99.90
9768;DHT22;4923;52.520;13.494;2022-08-02T01:32:49;18.10;99.90
9768;DHT22;4923;52.520;13.494;2022-08-02T01:35:42;18.10;99.90
9768;DHT22;4923;52.520;13.494;2022-08-02T01:38:32;18.10;99.90
9768;DHT22;4923;52.520;13.494;2022-08-02T01:41:24;18.00;99.90
9768;DHT22;4923;52.520;13.494;2022-08-02T01:44:12;18.00;99.90
9768;DHT22;4923;52.520;13.494;2022-08-02T01:47:05;18.00;99.90
9768;DHT22;4923;52.520;13.494;2022-08-02T01:49:57;18.00;99.90
9768;DHT22;4923;52.520;13.494;2022-08-02T01:52:47;18.00;99.90
9768;DHT22;4923;52.520;13.494;2022-08-02T01:55:39;18.00;99.90
9768;DHT22;4923;52.520;13.494;2022-08-02T01:58:30;18.00;99.90
9768;DHT22;4923;52.520;13.494;2022-08-02T02:01:17;18.00;99.90
9768;DHT22;4923;52.520;13.494;2022-08-02T02:04:08;18.00;99.90
9768;DHT22;4923;52.520;13.494;2022-08-02T02:06:56;18.00;99.90
9768;DHT22;4923;52.520;13.494;2022-08-02T02:09:45;18.00;99.90
9768;DHT22;4923;52.520;13.494;2022-08-02T02:12:34;17.90;99.90
9768;DHT22;4923;52.520;13.494;2022-08-02T02:15:22;17.90;99.90
9768;DHT22;4923;52.520;13.494;2022-08-02T02:18:13;17.90;99.90
9768;DHT22;4923;52.520;13.494;2022-08-02T02:21:04;17.90;99.90
9768;DHT22;4923;52.520;13.494;2022-08-02T02:23:50;17.80;99.90
9768;DHT22;4923;52.520;13.494;2022-08-02T02:26:39;17.80;99.90
9768;DHT22;4923;52.520;13.494;2022-08-02T02:29:29;17.80;99.90
9768;DHT22;4923;52.520;13.494;2022-08-02T02:32:17;17.90;99.90
9768;DHT22;4923;52.520;13.494;2022-08-02T02:35:06;17.90;99.90
9768;DHT22;4923;52.520;13.494;2022-08-02T02:37:58;17.90;99.90
9768;DHT22;4923;52.520;13.494;2022-08-02T02:40:46;17.90;99.90
9768;DHT22;4923;52.520;13.494;2022-08-02T02:43:37;17.90;99.90
9768;DHT22;4923;52.520;13.494;2022-08-02T02:46:25;17.90;99.90
9768;DHT22;4923;52.520;13.494;2022-08-02T02:49:13;17.90;99.90
9768;DHT22;4923;52.520;13.494;2022-08-02T02:52:02;17.90;99.90
9768;DHT22;4923;52.520;13.494;2022-08-02T02:54:52;17.90;99.90
9768;DHT22;4923;52.520;13.494;2022-08-02T02:57:40;18.00;99.90
9768;DHT22;4923;52.520;13.494;2022-08-02T03:00:28;17.90;99.90
9768;DHT22;4923;52.520;13.494;2022-08-02T03:03:33;18.00;99.90
9768;DHT22;4923;52.520;13.494;2022-08-02T03:06:20;17.90;99.90
9768;DHT22;4923;52.520;13.494;2022-08-02T03:09:07;17.90;99.90
9768;DHT22;4923;52.520;13.494;2022-08-02T03:11:56;17.90;99.90
9768;DHT22;4923;52.520;13.494;2022-08-02T03:14:43;18.00;99.90
9768;DHT22;4923;52.520;13.494;2022-08-02T03:17:39;17.90;99.90
9768;DHT22;4923;52.520;13.494;2022-08-02T03:20:25;18.00;99.90
9768;DHT22;4923;52.520;13.494;2022-08-02T03:23:12;18.00;99.90
9768;DHT22;4923;52.520;13.494;2022-08-02T03:26:00;17.90;99.90
9768;DHT22;4923;52.520;13.494;2022-08-02T03:28:48;17.90;99.90
9768;DHT22;4923;52.520;13.494;2022-08-02T03:31:35;17.80;99.90
9768;DHT22;4923;52.520;13.494;2022-08-02T03:34:22;17.70;99.90
9768;DHT22;4923;52.520;13.494;2022-08-02T03:37:09;17.60;99.90
9768;DHT22;4923;52.520;13.494;2022-08-02T03:39:57;17.50;99.90
9768;DHT22;4923;52.520;13.494;2022-08-02T03:42:45;17.40;99.90
9768;DHT22;4923;52.520;13.494;2022-08-02T03:45:34;17.40;99.90
9768;DHT22;4923;52.520;13.494;2022-08-02T03:48:23;17.30;99.90
9768;DHT22;4923;52.520;13.494;2022-08-02T03:51:10;17.30;99.90
9768;DHT22;4923;52.520;13.494;2022-08-02T03:53:58;17.30;99.90
9768;DHT22;4923;52.520;13.494;2022-08-02T03:56:46;17.20;99.90
9768;DHT22;4923;52.520;13.494;2022-08-02T03:59:39;17.20;99.90
9768;DHT22;4923;52.520;13.494;2022-08-02T04:02:28;17.10;99.90
9768;DHT22;4923;52.520;13.494;2022-08-02T04:05:16;17.10;99.90
9768;DHT22;4923;52.520;13.494;2022-08-02T04:08:03;17.10;99.90
9768;DHT22;4923;52.520;13.494;2022-08-02T04:10:50;17.10;99.90
9768;DHT22;4923;52.520;13.494;2022-08-02T04:13:55;17.10;99.90
9768;DHT22;4923;52.520;13.494;2022-08-02T04:16:44;17.30;99.90
9768;DHT22;4923;52.520;13.494;2022-08-02T04:19:38;17.40;99.90
9768;DHT22;4923;52.520;13.494;2022-08-02T04:22:29;17.50;99.90
9768;DHT22;4923;52.520;13.494;2022-08-02T04:25:18;17.70;99.90
9768;DHT22;4923;52.520;13.494;2022-08-02T04:28:06;18.00;99.90
9768;DHT22;4923;52.520;13.494;2022-08-02T04:30:54;18.00;99.90
9768;DHT22;4923;52.520;13.494;2022-08-02T04:33:41;18.20;99.90
9768;DHT22;4923;52.520;13.494;2022-08-02T04:36:30;18.10;99.90
9768;DHT22;4923;52.520;13.494;2022-08-02T04:39:18;18.00;99.90
9768;DHT22;4923;52.520;13.494;2022-08-02T04:42:05;18.10;99.90
9768;DHT22;4923;52.520;13.494;2022-08-02T04:44:53;18.00;99.90
9768;DHT22;4923;52.520;13.494;2022-08-02T04:47:40;18.10;99.90
9768;DHT22;4923;52.520;13.494;2022-08-02T04:50:27;18.20;99.90
9768;DHT22;4923;52.520;13.494;2022-08-02T04:53:15;18.30;99.90
9768;DHT22;4923;52.520;13.494;2022-08-02T04:56:02;18.20;99.90
9768;DHT22;4923;52.520;13.494;2022-08-02T04:58:49;18.30;99.90
9768;DHT22;4923;52.520;13.494;2022-08-02T05:01:37;18.20;99.90
9768;DHT22;4923;52.520;13.494;2022-08-02T05:04:26;18.30;99.90
9768;DHT22;4923;52.520;13.494;2022-08-02T05:07:13;18.30;99.90
9768;DHT22;4923;52.520;13.494;2022-08-02T05:10:03;18.40;99.90
9768;DHT22;4923;52.520;13.494;2022-08-02T05:12:50;18.40;99.90
9768;DHT22;4923;52.520;13.494;2022-08-02T05:15:37;18.40;99.90
9768;DHT22;4923;52.520;13.494;2022-08-02T05:18:26;18.40;99.90
9768;DHT22;4923;52.520;13.494;2022-08-02T05:21:14;18.50;99.90
9768;DHT22;4923;52.520;13.494;2022-08-02T05:24:01;18.60;99.90
9768;DHT22;4923;52.520;13.494;2022-08-02T05:26:50;18.70;99.90
9768;DHT22;4923;52.520;13.494;2022-08-02T05:29:36;18.80;99.90
9768;DHT22;4923;52.520;13.494;2022-08-02T05:32:23;19.20;99.90
9768;DHT22;4923;52.520;13.494;2022-08-02T05:35:11;19.30;99.90
9768;DHT22;4923;52.520;13.494;2022-08-02T05:37:58;19.30;99.90
9768;DHT22;4923;52.520;13.494;2022-08-02T05:40:44;19.50;99.90
9768;DHT22;4923;52.520;13.494;2022-08-02T05:43:33;19.70;99.90
9768;DHT22;4923;52.520;13.494;2022-08-02T05:46:20;19.80;99.90
9768;DHT22;4923;52.520;13.494;2022-08-02T05:49:07;20.00;99.90
9768;DHT22;4923;52.520;13.494;2022-08-02T05:51:59;20.10;99.90
9768;DHT22;4923;52.520;13.494;2022-08-02T05:54:54;20.20;99.90
9768;DHT22;4923;52.520;13.494;2022-08-02T05:57:49;20.30;99.90
9768;DHT22;4923;52.520;13.494;2022-08-02T06:00:40;20.40;99.90
9768;DHT22;4923;52.520;13.494;2022-08-02T06:03:31;20.40;99.90
9768;DHT22;4923;52.520;13.494;2022-08-02T06:06:21;20.50;99.90
9768;DHT22;4923;52.520;13.494;2022-08-02T06:09:14;20.50;99.90
9768;DHT22;4923;52.520;13.494;2022-08-02T06:12:03;20.70;99.90
9768;DHT22;4923;52.520;13.494;2022-08-02T06:14:51;20.80;99.90
9768;DHT22;4923;52.520;13.494;2022-08-02T06:17:41;21.00;99.90
9768;DHT22;4923;52.520;13.494;2022-08-02T06:20:29;21.10;99.90
9768;DHT22;4923;52.520;13.494;2022-08-02T06:23:20;21.30;99.90
9768;DHT22;4923;52.520;13.494;2022-08-02T06:26:08;21.50;99.90
9768;DHT22;4923;52.520;13.494;2022-08-02T06:28:57;21.50;99.90
9768;DHT22;4923;52.520;13.494;2022-08-02T06:31:44;21.60;99.90
9768;DHT22;4923;52.520;13.494;2022-08-02T06:34:35;21.70;99.90
9768;DHT22;4923;52.520;13.494;2022-08-02T06:37:26;21.60;99.90
9768;DHT22;4923;52.520;13.494;2022-08-02T06:40:24;21.70;99.90
9768;DHT22;4923;52.520;13.494;2022-08-02T06:43:17;21.90;99.90
9768;DHT22;4923;52.520;13.494;2022-08-02T06:46:04;22.00;99.90
9768;DHT22;4923;52.520;13.494;2022-08-02T06:48:51;22.10;99.90
9768;DHT22;4923;52.520;13.494;2022-08-02T06:51:41;22.10;99.90
9768;DHT22;4923;52.520;13.494;2022-08-02T06:54:28;22.20;99.90
9768;DHT22;4923;52.520;13.494;2022-08-02T06:57:14;22.20;99.90
9768;DHT22;4923;52.520;13.494;2022-08-02T07:00:05;22.40;99.90
9768;DHT22;4923;52.520;13.494;2022-08-02T07:02:53;22.00;99.90
9768;DHT22;4923;52.520;13.494;2022-08-02T07:05:41;22.10;99.90
9768;DHT22;4923;52.520;13.494;2022-08-02T07:08:35;22.10;99.90
9768;DHT22;4923;52.520;13.494;2022-08-02T07:11:23;22.40;99.90
9768;DHT22;4923;52.520;13.494;2022-08-02T07:14:10;22.60;99.90
9768;DHT22;4923;52.520;13.494;2022-08-02T07:16:57;22.80;99.90
9768;DHT22;4923;52.520;13.494;2022-08-02T07:19:44;22.80;99.90
9768;DHT22;4923;52.520;13.494;2022-08-02T07:22:31;22.90;99.90
9768;DHT22;4923;52.520;13.494;2022-08-02T07:25:19;22.80;99.90
9768;DHT22;4923;52.520;13.494;2022-08-02T07:28:08;22.90;99.90
9768;DHT22;4923;52.520;13.494;2022-08-02T07:30:56;23.00;99.90
9768;DHT22;4923;52.520;13.494;2022-08-02T07:33:43;23.10;99.90
9768;DHT22;4923;52.520;13.494;2022-08-02T07:36:29;22.70;99.90
9768;DHT22;4923;52.520;13.494;2022-08-02T07:39:16;22.50;99.90
9768;DHT22;4923;52.520;13.494;2022-08-02T07:42:05;22.60;99.90
9768;DHT22;4923;52.520;13.494;2022-08-02T07:44:52;22.70;99.90
9768;DHT22;4923;52.520;13.494;2022-08-02T07:47:40;22.50;99.90
9768;DHT22;4923;52.520;13.494;2022-08-02T07:50:28;22.40;99.90
9768;DHT22;4923;52.520;13.494;2022-08-02T07:53:15;22.30;99.90
9768;DHT22;4923;52.520;13.494;2022-08-02T07:56:02;22.30;99.90
9768;DHT22;4923;52.520;13.494;2022-08-02T07:58:50;22.60;99.90
9768;DHT22;4923;52.520;13.494;2022-08-02T08:01:37;22.90;99.90
9768;DHT22;4923;52.520;13.494;2022-08-02T08:04:24;23.00;99.90
9768;DHT22;4923;52.520;13.494;2022-08-02T08:07:11;23.00;99.90
9768;DHT22;4923;52.520;13.494;2022-08-02T08:09:58;22.80;99.90
9768;DHT22;4923;52.520;13.494;2022-08-02T08:12:47;22.60;99.90
9768;DHT22;4923;52.520;13.494;2022-08-02T08:15:36;22.70;99.90
9768;DHT22;4923;52.520;13.494;2022-08-02T08:18:23;23.00;99.90
9768;DHT22;4923;52.520;13.494;2022-08-02T08:21:09;23.10;99.90
9768;DHT22;4923;52.520;13.494;2022-08-02T08:23:57;23.20;99.90
9768;DHT22;4923;52.520;13.494;2022-08-02T08:26:44;23.30;99.90
9768;DHT22;4923;52.520;13.494;2022-08-02T08:29:31;23.30;99.90
9768;DHT22;4923;52.520;13.494;2022-08-02T08:32:19;23.10;99.90
9768;DHT22;4923;52.520;13.494;2022-08-02T08:35:06;23.10;99.90
9768;DHT22;4923;52.520;13.494;2022-08-02T08:37:53;23.00;99.90
9768;DHT22;4923;52.520;13.494;2022-08-02T08:40:41;23.20;99.90
9768;DHT22;4923;52.520;13.494;2022-08-02T08:43:29;23.50;99.90
9768;DHT22;4923;52.520;13.494;2022-08-02T08:46:25;23.40;99.90
9768;DHT22;4923;52.520;13.494;2022-08-02T08:49:22;23.30;99.90
9768;DHT22;4923;52.520;13.494;2022-08-02T08:52:11;23.20;99.90
9768;DHT22;4923;52.520;13.494;2022-08-02T08:55:00;23.20;99.90
9768;DHT22;4923;52.520;13.494;2022-08-02T08:57:48;23.40;99.90
9768;DHT22;4923;52.520;13.494;2022-08-02T09:00:35;23.40;99.90
9768;DHT22;4923;52.520;13.494;2022-08-02T09:03:22;23.40;99.90
9768;DHT22;4923;52.520;13.494;2022-08-02T09:06:10;23.80;99.90
9768;DHT22;4923;52.520;13.494;2022-08-02T09:08:57;24.20;99.90
9768;DHT22;4923;52.520;13.494;2022-08-02T09:11:44;24.30;99.90
9768;DHT22;4923;52.520;13.494;2022-08-02T09:14:31;24.00;99.90
9768;DHT22;4923;52.520;13.494;2022-08-02T09:17:18;23.80;99.90
9768;DHT22;4923;52.520;13.494;2022-08-02T09:20:08;23.60;99.90
9768;DHT22;4923;52.520;13.494;2022-08-02T09:23:06;23.70;99.90
9768;DHT22;4923;52.520;13.494;2022-08-02T09:25:57;23.90;99.90
9768;DHT22;4923;52.520;13.494;2022-08-02T09:28:47;24.10;99.90
9768;DHT22;4923;52.520;13.494;2022-08-02T09:31:35;24.30;99.90
9768;DHT22;4923;52.520;13.494;2022-08-02T09:34:23;24.50;99.90
9768;DHT22;4923;52.520;13.494;2022-08-02T09:37:26;24.60;99.90
9768;DHT22;4923;52.520;13.494;2022-08-02T09:40:14;24.50;99.90
9768;DHT22;4923;52.520;13.494;2022-08-02T09:43:02;24.20;99.90
9768;DHT22;4923;52.520;13.494;2022-08-02T09:45:49;24.10;99.90
9768;DHT22;4923;52.520;13.494;2022-08-02T09:48:46;23.90;99.90
9768;DHT22;4923;52.520;13.494;2022-08-02T09:51:35;24.20;99.90
9768;DHT22;4923;52.520;13.494;2022-08-02T09:54:24;24.10;99.90
9768;DHT22;4923;52.520;13.494;2022-08-02T09:57:24;24.20;99.90
9768;DHT22;4923;52.520;13.494;2022-08-02T10:00:12;24.20;99.90
9768;DHT22;4923;52.520;13.494;2022-08-02T10:03:06;24.20;99.90
9768;DHT22;4923;52.520;13.494;2022-08-02T10:05:55;24.20;99.90
9768;DHT22;4923;52.520;13.494;2022-08-02T10:08:43;24.50;99.90
9768;DHT22;4923;52.520;13.494;2022-08-02T10:11:30;25.10;1.00
9768;DHT22;4923;52.520;13.494;2022-08-02T10:14:20;25.40;1.00
9768;DHT22;4923;52.520;13.494;2022-08-02T10:17:08;25.50;1.00
9768;DHT22;4923;52.520;13.494;2022-08-02T10:19:55;25.90;1.00
9768;DHT22;4923;52.520;13.494;2022-08-02T10:22:43;26.50;1.00
9768;DHT22;4923;52.520;13.494;2022-08-02T10:25:31;26.90;1.00
9768;DHT22;4923;52.520;13.494;2022-08-02T10:28:25;27.10;1.00
9768;DHT22;4923;52.520;13.494;2022-08-02T10:31:19;27.00;1.00
9768;DHT22;4923;52.520;13.494;2022-08-02T10:34:11;27.30;1.00
9768;DHT22;4923;52.520;13.494;2022-08-02T10:37:00;27.60;1.00
9768;DHT22;4923;52.520;13.494;2022-08-02T10:39:54;27.40;1.00
9768;DHT22;4923;52.520;13.494;2022-08-02T10:42:46;27.60;1.00
9768;DHT22;4923;52.520;13.494;2022-08-02T10:45:33;27.30;1.00
9768;DHT22;4923;52.520;13.494;2022-08-02T10:48:22;26.80;1.00
9768;DHT22;4923;52.520;13.494;2022-08-02T10:51:09;26.40;1.00
9768;DHT22;4923;52.520;13.494;2022-08-02T10:54:07;26.00;1.00
9768;DHT22;4923;52.520;13.494;2022-08-02T10:56:55;25.60;1.00
9768;DHT22;4923;52.520;13.494;2022-08-02T10:59:44;25.60;1.00
9768;DHT22;4923;52.520;13.494;2022-08-02T11:02:33;25.60;1.00
9768;DHT22;4923;52.520;13.494;2022-08-02T11:05:29;25.80;1.00
9768;DHT22;4923;52.520;13.494;2022-08-02T11:08:20;25.80;1.00
9768;DHT22;4923;52.520;13.494;2022-08-02T11:11:18;26.10;1.00
9768;DHT22;4923;52.520;13.494;2022-08-02T11:14:05;26.10;1.00
9768;DHT22;4923;52.520;13.494;2022-08-02T11:17:14;25.70;1.00
9768;DHT22;4923;52.520;13.494;2022-08-02T11:20:17;25.40;1.00
9768;DHT22;4923;52.520;13.494;2022-08-02T11:23:38;25.30;1.00
9768;DHT22;4923;52.520;13.494;2022-08-02T11:26:44;25.50;1.00
9768;DHT22;4923;52.520;13.494;2022-08-02T11:29:33;25.50;1.00
9768;DHT22;4923;52.520;13.494;2022-08-02T11:32:22;25.60;1.00
9768;DHT22;4923;52.520;13.494;2022-08-02T11:35:11;25.80;1.00
9768;DHT22;4923;52.520;13.494;2022-08-02T11:38:12;26.10;1.00
9768;DHT22;4923;52.520;13.494;2022-08-02T11:41:01;25.80;1.00
9768;DHT22;4923;52.520;13.494;2022-08-02T11:43:53;25.30;1.00
9768;DHT22;4923;52.520;13.494;2022-08-02T11:46:41;25.50;1.00
9768;DHT22;4923;52.520;13.494;2022-08-02T11:49:28;25.70;1.00
9768;DHT22;4923;52.520;13.494;2022-08-02T11:52:15;25.70;1.00
9768;DHT22;4923;52.520;13.494;2022-08-02T11:55:04;26.00;1.00
9768;DHT22;4923;52.520;13.494;2022-08-02T11:57:59;26.20;1.00
9768;DHT22;4923;52.520;13.494;2022-08-02T12:00:46;25.80;1.00
9768;DHT22;4923;52.520;13.494;2022-08-02T12:03:35;25.60;1.00
9768;DHT22;4923;52.520;13.494;2022-08-02T12:06:23;25.60;1.00
9768;DHT22;4923;52.520;13.494;2022-08-02T12:09:11;25.80;1.00
9768;DHT22;4923;52.520;13.494;2022-08-02T12:11:59;25.50;1.00
9768;DHT22;4923;52.520;13.494;2022-08-02T12:14:48;25.40;1.00
9768;DHT22;4923;52.520;13.494;2022-08-02T12:17:35;25.60;1.00
9768;DHT22;4923;52.520;13.494;2022-08-02T12:20:38;25.70;1.00
9768;DHT22;4923;52.520;13.494;2022-08-02T12:23:27;26.00;1.00
9768;DHT22;4923;52.520;13.494;2022-08-02T12:26:14;26.20;1.00
9768;DHT22;4923;52.520;13.494;2022-08-02T12:29:01;26.40;1.00
9768;DHT22;4923;52.520;13.494;2022-08-02T12:31:49;26.60;1.00
9768;DHT22;4923;52.520;13.494;2022-08-02T12:34:36;26.60;1.00
9768;DHT22;4923;52.520;13.494;2022-08-02T12:37:24;26.70;1.00
9768;DHT22;4923;52.520;13.494;2022-08-02T12:40:19;26.90;1.00
9768;DHT22;4923;52.520;13.494;2022-08-02T12:43:15;27.00;1.00
9768;DHT22;4923;52.520;13.494;2022-08-02T12:46:03;27.10;1.00
9768;DHT22;4923;52.520;13.494;2022-08-02T12:48:51;27.20;1.00
9768;DHT22;4923;52.520;13.494;2022-08-02T12:51:38;27.30;1.00
9768;DHT22;4923;52.520;13.494;2022-08-02T12:54:30;27.40;1.00
9768;DHT22;4923;52.520;13.494;2022-08-02T12:57:18;27.50;1.00
9768;DHT22;4923;52.520;13.494;2022-08-02T13:00:06;27.60;1.00
9768;DHT22;4923;52.520;13.494;2022-08-02T13:02:54;27.50;1.00
9768;DHT22;4923;52.520;13.494;2022-08-02T13:05:42;27.40;1.00
9768;DHT22;4923;52.520;13.494;2022-08-02T13:08:30;27.50;1.00
9768;DHT22;4923;52.520;13.494;2022-08-02T13:11:17;27.30;1.00
9768;DHT22;4923;52.520;13.494;2022-08-02T13:14:04;27.10;1.00
9768;DHT22;4923;52.520;13.494;2022-08-02T13:16:51;27.00;1.00
9768;DHT22;4923;52.520;13.494;2022-08-02T13:19:38;27.20;1.00
9768;DHT22;4923;52.520;13.494;2022-08-02T13:22:28;27.20;1.00
9768;DHT22;4923;52.520;13.494;2022-08-02T13:25:15;27.50;1.00
9768;DHT22;4923;52.520;13.494;2022-08-02T13:28:02;27.50;1.00
9768;DHT22;4923;52.520;13.494;2022-08-02T13:30:49;27.50;1.00
9768;DHT22;4923;52.520;13.494;2022-08-02T13:33:36;27.70;1.00
9768;DHT22;4923;52.520;13.494;2022-08-02T13:36:23;27.90;1.00
9768;DHT22;4923;52.520;13.494;2022-08-02T13:39:11;28.00;1.00
9768;DHT22;4923;52.520;13.494;2022-08-02T13:41:58;28.00;1.00
9768;DHT22;4923;52.520;13.494;2022-08-02T13:44:45;28.10;99.90
9768;DHT22;4923;52.520;13.494;2022-08-02T13:47:34;28.10;99.90
9768;DHT22;4923;52.520;13.494;2022-08-02T13:50:23;28.10;99.90
9768;DHT22;4923;52.520;13.494;2022-08-02T13:53:10;28.10;99.90
9768;DHT22;4923;52.520;13.494;2022-08-02T13:55:59;28.10;99.90
9768;DHT22;4923;52.520;13.494;2022-08-02T13:58:47;28.10;99.90
9768;DHT22;4923;52.520;13.494;2022-08-02T14:01:34;27.90;99.90
9768;DHT22;4923;52.520;13.494;2022-08-02T14:04:22;28.00;99.90
9768;DHT22;4923;52.520;13.494;2022-08-02T14:07:09;28.00;99.90
9768;DHT22;4923;52.520;13.494;2022-08-02T14:09:57;28.20;99.90
9768;DHT22;4923;52.520;13.494;2022-08-02T14:12:45;27.70;99.90
9768;DHT22;4923;52.520;13.494;2022-08-02T14:15:33;28.00;99.90
9768;DHT22;4923;52.520;13.494;2022-08-02T14:18:20;28.00;99.90
9768;DHT22;4923;52.520;13.494;2022-08-02T14:21:07;28.30;99.90
9768;DHT22;4923;52.520;13.494;2022-08-02T14:23:54;28.60;99.90
9768;DHT22;4923;52.520;13.494;2022-08-02T14:26:41;29.00;99.90
9768;DHT22;4923;52.520;13.494;2022-08-02T14:29:29;29.10;99.90
9768;DHT22;4923;52.520;13.494;2022-08-02T14:32:16;29.10;99.90
9768;DHT22;4923;52.520;13.494;2022-08-02T14:35:04;28.70;99.90
9768;DHT22;4923;52.520;13.494;2022-08-02T14:37:51;28.60;99.90
9768;DHT22;4923;52.520;13.494;2022-08-02T14:40:38;28.80;99.90
9768;DHT22;4923;52.520;13.494;2022-08-02T14:43:25;28.80;99.90
9768;DHT22;4923;52.520;13.494;2022-08-02T14:46:31;28.90;99.90
9768;DHT22;4923;52.520;13.494;2022-08-02T14:49:19;29.10;99.90
9768;DHT22;4923;52.520;13.494;2022-08-02T14:52:06;29.00;99.90
9768;DHT22;4923;52.520;13.494;2022-08-02T14:54:54;29.00;99.90
9768;DHT22;4923;52.520;13.494;2022-08-02T14:57:41;29.20;99.90
9768;DHT22;4923;52.520;13.494;2022-08-02T15:00:28;29.40;99.90
9768;DHT22;4923;52.520;13.494;2022-08-02T15:03:16;29.60;99.90
9768;DHT22;4923;52.520;13.494;2022-08-02T15:06:03;29.70;99.90
9768;DHT22;4923;52.520;13.494;2022-08-02T15:08:51;29.80;99.90
9768;DHT22;4923;52.520;13.494;2022-08-02T15:11:38;29.80;99.90
9768;DHT22;4923;52.520;13.494;2022-08-02T15:14:25;29.80;99.90
9768;DHT22;4923;52.520;13.494;2022-08-02T15:17:12;29.80;99.90
9768;DHT22;4923;52.520;13.494;2022-08-02T15:20:01;29.90;99.90
9768;DHT22;4923;52.520;13.494;2022-08-02T15:22:48;29.80;99.90
9768;DHT22;4923;52.520;13.494;2022-08-02T15:25:35;29.60;99.90
9768;DHT22;4923;52.520;13.494;2022-08-02T15:28:22;29.40;99.90
9768;DHT22;4923;52.520;13.494;2022-08-02T15:31:09;28.80;99.90
9768;DHT22;4923;52.520;13.494;2022-08-02T15:33:56;28.90;99.90
9768;DHT22;4923;52.520;13.494;2022-08-02T15:36:45;28.50;99.90
9768;DHT22;4923;52.520;13.494;2022-08-02T15:39:32;28.40;99.90
9768;DHT22;4923;52.520;13.494;2022-08-02T15:42:19;28.70;99.90
9768;DHT22;4923;52.520;13.494;2022-08-02T15:45:07;28.90;99.90
9768;DHT22;4923;52.520;13.494;2022-08-02T15:47:54;29.30;99.90
9768;DHT22;4923;52.520;13.494;2022-08-02T15:50:41;29.50;99.90
9768;DHT22;4923;52.520;13.494;2022-08-02T15:53:29;29.50;99.90
9768;DHT22;4923;52.520;13.494;2022-08-02T15:56:16;29.60;99.90
9768;DHT22;4923;52.520;13.494;2022-08-02T15:59:03;29.40;99.90
9768;DHT22;4923;52.520;13.494;2022-08-02T16:01:50;29.00;99.90
9768;DHT22;4923;52.520;13.494;2022-08-02T16:04:37;28.90;99.90
9768;DHT22;4923;52.520;13.494;2022-08-02T16:07:24;28.80;99.90
9768;DHT22;4923;52.520;13.494;2022-08-02T16:10:12;28.60;99.90
9768;DHT22;4923;52.520;13.494;2022-08-02T16:12:59;28.60;99.90
9768;DHT22;4923;52.520;13.494;2022-08-02T16:16:00;28.70;99.90
9768;DHT22;4923;52.520;13.494;2022-08-02T16:18:47;28.40;99.90
9768;DHT22;4923;52.520;13.494;2022-08-02T16:21:35;28.50;99.90
9768;DHT22;4923;52.520;13.494;2022-08-02T16:24:22;28.30;99.90
9768;DHT22;4923;52.520;13.494;2022-08-02T16:27:10;28.10;99.90
9768;DHT22;4923;52.520;13.494;2022-08-02T16:29:57;28.30;99.90
9768;DHT22;4923;52.520;13.494;2022-08-02T16:32:44;28.40;99.90
9768;DHT22;4923;52.520;13.494;2022-08-02T16:35:31;28.50;99.90
9768;DHT22;4923;52.520;13.494;2022-08-02T16:38:19;28.70;99.90
9768;DHT22;4923;52.520;13.494;2022-08-02T16:41:07;28.90;99.90
9768;DHT22;4923;52.520;13.494;2022-08-02T16:43:56;28.90;99.90
9768;DHT22;4923;52.520;13.494;2022-08-02T16:46:43;29.00;99.90
9768;DHT22;4923;52.520;13.494;2022-08-02T16:49:30;28.90;99.90
9768;DHT22;4923;52.520;13.494;2022-08-02T16:52:18;28.90;99.90
9768;DHT22;4923;52.520;13.494;2022-08-02T16:55:07;29.00;99.90
9768;DHT22;4923;52.520;13.494;2022-08-02T16:57:55;29.10;99.90
9768;DHT22;4923;52.520;13.494;2022-08-02T17:00:44;29.10;99.90
9768;DHT22;4923;52.520;13.494;2022-08-02T17:03:31;29.40;99.90
9768;DHT22;4923;52.520;13.494;2022-08-02T17:06:18;29.40;99.90
9768;DHT22;4923;52.520;13.494;2022-08-02T17:09:05;29.30;99.90
9768;DHT22;4923;52.520;13.494;2022-08-02T17:11:52;29.40;99.90
9768;DHT22;4923;52.520;13.494;2022-08-02T17:14:39;29.50;99.90
9768;DHT22;4923;52.520;13.494;2022-08-02T17:17:28;29.30;99.90
9768;DHT22;4923;52.520;13.494;2022-08-02T17:20:15;29.40;99.90
9768;DHT22;4923;52.520;13.494;2022-08-02T17:23:02;29.40;99.90
9768;DHT22;4923;52.520;13.494;2022-08-02T17:25:50;29.10;99.90
9768;DHT22;4923;52.520;13.494;2022-08-02T17:28:37;28.60;99.90
9768;DHT22;4923;52.520;13.494;2022-08-02T17:31:24;28.20;99.90
9768;DHT22;4923;52.520;13.494;2022-08-02T17:34:13;28.10;99.90
9768;DHT22;4923;52.520;13.494;2022-08-02T17:37:02;28.00;99.90
9768;DHT22;4923;52.520;13.494;2022-08-02T17:39:49;27.60;99.90
9768;DHT22;4923;52.520;13.494;2022-08-02T17:42:36;27.50;99.90
9768;DHT22;4923;52.520;13.494;2022-08-02T17:45:24;27.60;99.90
9768;DHT22;4923;52.520;13.494;2022-08-02T17:48:11;27.70;99.90
9768;DHT22;4923;52.520;13.494;2022-08-02T17:50:59;27.40;99.90
9768;DHT22;4923;52.520;13.494;2022-08-02T17:53:46;27.30;99.90
9768;DHT22;4923;52.520;13.494;2022-08-02T17:56:33;26.70;99.90
9768;DHT22;4923;52.520;13.494;2022-08-02T17:59:22;26.30;99.90
9768;DHT22;4923;52.520;13.494;2022-08-02T18:02:09;26.20;1.00
9768;DHT22;4923;52.520;13.494;2022-08-02T18:04:56;26.10;99.90
9768;DHT22;4923;52.520;13.494;2022-08-02T18:07:44;25.90;99.90
9768;DHT22;4923;52.520;13.494;2022-08-02T18:10:33;25.80;1.00